sensor_id;sensor_type;location;lat;lon;timestamp;P1;durP1;ratioP1;P2;durP2;ratioP2
34920;SDS011;21128;50.016;20.002;2023-04-19T00:00:07;22.63;;;17.30;;
34920;SDS011;21128;50.016;20.002;2023-04-19T00:02:54;24.30;;;18.23;;
34920;SDS011;21128;50.016;20.002;2023-04-19T00:05:21;25.35;;;18.48;;
34920;SDS011;21128;50.016;20.002;2023-04-19T00:07:49;24.73;;;18.27;;
34920;SDS011;21128;50.016;20.002;2023-04-19T00:10:16;26.43;;;18.13;;
34920;SDS011;21128;50.016;20.002;2023-04-19T00:12:43;25.20;;;18.37;;
34920;SDS011;21128;50.016;20.002;2023-04-19T00:15:10;26.42;;;18.42;;
34920;SDS011;21128;50.016;20.002;2023-04-19T00:17:38;25.37;;;19.10;;
34920;SDS011;21128;50.016;20.002;2023-04-19T00:20:05;23.55;;;16.82;;
34920;SDS011;21128;50.016;20.002;2023-04-19T00:22:33;30.27;;;18.90;;
34920;SDS011;21128;50.016;20.002;2023-04-19T00:25:00;25.40;;;18.12;;
34920;SDS011;21128;50.016;20.002;2023-04-19T00:27:28;25.00;;;18.07;;
34920;SDS011;21128;50.016;20.002;2023-04-19T00:29:55;24.47;;;18.03;;
34920;SDS011;21128;50.016;20.002;2023-04-19T00:32:23;25.17;;;19.50;;
34920;SDS011;21128;50.016;20.002;2023-04-19T00:34:50;27.13;;;18.30;;
34920;SDS011;21128;50.016;20.002;2023-04-19T00:37:17;25.77;;;18.77;;
34920;SDS011;21128;50.016;20.002;2023-04-19T00:39:44;26.05;;;17.82;;
34920;SDS011;21128;50.016;20.002;2023-04-19T00:42:11;24.47;;;18.23;;
34920;SDS011;21128;50.016;20.002;2023-04-19T00:44:38;27.07;;;19.50;;
34920;SDS011;21128;50.016;20.002;2023-04-19T00:47:05;27.30;;;17.77;;
34920;SDS011;21128;50.016;20.002;2023-04-19T00:49:32;27.07;;;18.73;;
34920;SDS011;21128;50.016;20.002;2023-04-19T00:51:59;27.73;;;18.83;;
34920;SDS011;21128;50.016;20.002;2023-04-19T00:54:26;27.98;;;19.62;;
34920;SDS011;21128;50.016;20.002;2023-04-19T00:56:53;29.43;;;19.90;;
34920;SDS011;21128;50.016;20.002;2023-04-19T00:59:21;27.07;;;19.27;;
34920;SDS011;21128;50.016;20.002;2023-04-19T01:01:50;26.53;;;19.80;;
34920;SDS011;21128;50.016;20.002;2023-04-19T01:04:17;30.70;;;20.10;;
34920;SDS011;21128;50.016;20.002;2023-04-19T01:06:44;26.82;;;20.62;;
34920;SDS011;21128;50.016;20.002;2023-04-19T01:09:11;29.40;;;20.53;;
34920;SDS011;21128;50.016;20.002;2023-04-19T01:11:38;27.53;;;19.93;;
34920;SDS011;21128;50.016;20.002;2023-04-19T01:14:05;29.57;;;20.37;;
34920;SDS011;21128;50.016;20.002;2023-04-19T01:16:32;27.87;;;19.85;;
34920;SDS011;21128;50.016;20.002;2023-04-19T01:18:59;26.40;;;19.97;;
34920;SDS011;21128;50.016;20.002;2023-04-19T01:21:26;29.57;;;21.10;;
34920;SDS011;21128;50.016;20.002;2023-04-19T01:23:56;29.33;;;21.03;;
34920;SDS011;21128;50.016;20.002;2023-04-19T01:26:23;29.30;;;19.32;;
34920;SDS011;21128;50.016;20.002;2023-04-19T01:28:50;25.92;;;20.97;;
34920;SDS011;21128;50.016;20.002;2023-04-19T01:31:17;28.55;;;21.20;;
34920;SDS011;21128;50.016;20.002;2023-04-19T01:33:44;33.40;;;21.10;;
34920;SDS011;21128;50.016;20.002;2023-04-19T01:36:11;31.03;;;20.87;;
34920;SDS011;21128;50.016;20.002;2023-04-19T01:38:38;29.35;;;21.33;;
34920;SDS011;21128;50.016;20.002;2023-04-19T01:41:05;28.43;;;21.30;;
34920;SDS011;21128;50.016;20.002;2023-04-19T01:43:33;25.70;;;21.37;;
34920;SDS011;21128;50.016;20.002;2023-04-19T01:46:00;31.73;;;22.40;;
34920;SDS011;21128;50.016;20.002;2023-04-19T01:48:27;30.97;;;23.37;;
34920;SDS011;21128;50.016;20.002;2023-04-19T01:50:54;32.63;;;22.60;;
34920;SDS011;21128;50.016;20.002;2023-04-19T01:53:21;31.90;;;23.20;;
34920;SDS011;21128;50.016;20.002;2023-04-19T01:55:48;30.67;;;22.97;;
34920;SDS011;21128;50.016;20.002;2023-04-19T01:58:15;30.00;;;23.03;;
34920;SDS011;21128;50.016;20.002;2023-04-19T02:00:42;31.60;;;23.73;;
34920;SDS011;21128;50.016;20.002;2023-04-19T02:03:09;29.97;;;23.00;;
34920;SDS011;21128;50.016;20.002;2023-04-19T02:05:37;32.67;;;21.30;;
34920;SDS011;21128;50.016;20.002;2023-04-19T02:08:05;32.90;;;22.90;;
34920;SDS011;21128;50.016;20.002;2023-04-19T02:10:32;30.63;;;21.87;;
34920;SDS011;21128;50.016;20.002;2023-04-19T02:12:59;30.70;;;22.40;;
34920;SDS011;21128;50.016;20.002;2023-04-19T02:15:26;33.33;;;22.47;;
34920;SDS011;21128;50.016;20.002;2023-04-19T02:17:53;27.55;;;21.52;;
34920;SDS011;21128;50.016;20.002;2023-04-19T02:20:20;28.43;;;22.23;;
34920;SDS011;21128;50.016;20.002;2023-04-19T02:22:47;30.88;;;22.87;;
34920;SDS011;21128;50.016;20.002;2023-04-19T02:25:14;32.87;;;23.93;;
34920;SDS011;21128;50.016;20.002;2023-04-19T02:27:42;35.43;;;22.67;;
34920;SDS011;21128;50.016;20.002;2023-04-19T02:30:09;28.80;;;23.10;;
34920;SDS011;21128;50.016;20.002;2023-04-19T02:32:36;37.30;;;24.33;;
34920;SDS011;21128;50.016;20.002;2023-04-19T02:35:03;30.13;;;22.30;;
34920;SDS011;21128;50.016;20.002;2023-04-19T02:37:31;34.80;;;24.17;;
34920;SDS011;21128;50.016;20.002;2023-04-19T02:39:58;37.40;;;24.50;;
34920;SDS011;21128;50.016;20.002;2023-04-19T02:42:24;35.17;;;25.03;;
34920;SDS011;21128;50.016;20.002;2023-04-19T02:44:51;31.50;;;25.03;;
34920;SDS011;21128;50.016;20.002;2023-04-19T02:47:18;36.20;;;24.57;;
34920;SDS011;21128;50.016;20.002;2023-04-19T02:49:46;35.37;;;25.87;;
34920;SDS011;21128;50.016;20.002;2023-04-19T02:52:13;32.93;;;24.15;;
34920;SDS011;21128;50.016;20.002;2023-04-19T02:54:40;32.80;;;24.83;;
34920;SDS011;21128;50.016;20.002;2023-04-19T02:57:07;39.65;;;26.70;;
34920;SDS011;21128;50.016;20.002;2023-04-19T02:59:34;33.90;;;25.37;;
34920;SDS011;21128;50.016;20.002;2023-04-19T03:02:01;39.67;;;25.90;;
34920;SDS011;21128;50.016;20.002;2023-04-19T03:04:29;35.50;;;25.47;;
34920;SDS011;21128;50.016;20.002;2023-04-19T03:06:56;37.05;;;25.50;;
34920;SDS011;21128;50.016;20.002;2023-04-19T03:09:23;32.87;;;25.23;;
34920;SDS011;21128;50.016;20.002;2023-04-19T03:11:51;35.37;;;25.40;;
34920;SDS011;21128;50.016;20.002;2023-04-19T03:14:18;36.13;;;25.43;;
34920;SDS011;21128;50.016;20.002;2023-04-19T03:16:45;38.50;;;26.17;;
34920;SDS011;21128;50.016;20.002;2023-04-19T03:19:12;31.12;;;23.92;;
34920;SDS011;21128;50.016;20.002;2023-04-19T03:21:39;37.10;;;25.57;;
34920;SDS011;21128;50.016;20.002;2023-04-19T03:24:06;32.87;;;21.90;;
34920;SDS011;21128;50.016;20.002;2023-04-19T03:26:33;29.63;;;21.97;;
34920;SDS011;21128;50.016;20.002;2023-04-19T03:29:01;30.30;;;22.70;;
34920;SDS011;21128;50.016;20.002;2023-04-19T03:31:28;30.43;;;20.77;;
34920;SDS011;21128;50.016;20.002;2023-04-19T03:33:55;27.73;;;19.43;;
34920;SDS011;21128;50.016;20.002;2023-04-19T03:36:22;24.10;;;18.83;;
34920;SDS011;21128;50.016;20.002;2023-04-19T03:38:49;24.80;;;18.30;;
34920;SDS011;21128;50.016;20.002;2023-04-19T03:41:23;26.40;;;18.30;;
34920;SDS011;21128;50.016;20.002;2023-04-19T03:43:51;23.23;;;17.30;;
34920;SDS011;21128;50.016;20.002;2023-04-19T03:46:18;24.92;;;16.93;;
34920;SDS011;21128;50.016;20.002;2023-04-19T03:48:46;24.27;;;16.27;;
34920;SDS011;21128;50.016;20.002;2023-04-19T03:51:13;22.13;;;16.77;;
34920;SDS011;21128;50.016;20.002;2023-04-19T03:53:41;19.63;;;16.20;;
34920;SDS011;21128;50.016;20.002;2023-04-19T03:56:08;26.87;;;17.07;;
34920;SDS011;21128;50.016;20.002;2023-04-19T03:58:36;24.52;;;17.15;;
34920;SDS011;21128;50.016;20.002;2023-04-19T04:01:03;23.65;;;17.00;;
34920;SDS011;21128;50.016;20.002;2023-04-19T04:03:31;21.70;;;16.00;;
34920;SDS011;21128;50.016;20.002;2023-04-19T04:05:58;23.57;;;16.07;;
34920;SDS011;21128;50.016;20.002;2023-04-19T04:08:25;21.35;;;14.90;;
34920;SDS011;21128;50.016;20.002;2023-04-19T04:10:53;23.20;;;16.33;;
34920;SDS011;21128;50.016;20.002;2023-04-19T04:13:20;25.33;;;16.20;;
34920;SDS011;21128;50.016;20.002;2023-04-19T04:15:47;23.03;;;15.90;;
34920;SDS011;21128;50.016;20.002;2023-04-19T04:18:14;23.07;;;14.87;;
34920;SDS011;21128;50.016;20.002;2023-04-19T04:20:43;23.83;;;15.83;;
34920;SDS011;21128;50.016;20.002;2023-04-19T04:23:10;18.80;;;15.05;;
34920;SDS011;21128;50.016;20.002;2023-04-19T04:25:37;23.00;;;15.93;;
34920;SDS011;21128;50.016;20.002;2023-04-19T04:28:04;21.33;;;15.23;;
34920;SDS011;21128;50.016;20.002;2023-04-19T04:30:32;18.60;;;14.23;;
34920;SDS011;21128;50.016;20.002;2023-04-19T04:32:59;17.50;;;14.30;;
34920;SDS011;21128;50.016;20.002;2023-04-19T04:35:26;22.15;;;15.50;;
34920;SDS011;21128;50.016;20.002;2023-04-19T04:37:55;21.10;;;14.83;;
34920;SDS011;21128;50.016;20.002;2023-04-19T04:40:22;20.55;;;14.75;;
34920;SDS011;21128;50.016;20.002;2023-04-19T04:42:49;21.87;;;14.10;;
34920;SDS011;21128;50.016;20.002;2023-04-19T04:45:18;18.80;;;15.25;;
34920;SDS011;21128;50.016;20.002;2023-04-19T04:47:45;19.42;;;15.23;;
34920;SDS011;21128;50.016;20.002;2023-04-19T04:50:12;18.67;;;14.07;;
34920;SDS011;21128;50.016;20.002;2023-04-19T04:52:39;17.45;;;13.95;;
34920;SDS011;21128;50.016;20.002;2023-04-19T04:55:06;22.90;;;16.30;;
34920;SDS011;21128;50.016;20.002;2023-04-19T04:57:34;22.77;;;15.63;;
34920;SDS011;21128;50.016;20.002;2023-04-19T05:00:01;20.17;;;14.68;;
34920;SDS011;21128;50.016;20.002;2023-04-19T05:02:30;25.65;;;15.45;;
34920;SDS011;21128;50.016;20.002;2023-04-19T05:04:58;22.67;;;14.63;;
34920;SDS011;21128;50.016;20.002;2023-04-19T05:07:25;23.37;;;15.47;;
34920;SDS011;21128;50.016;20.002;2023-04-19T05:09:51;22.17;;;15.40;;
34920;SDS011;21128;50.016;20.002;2023-04-19T05:12:18;18.50;;;14.53;;
34920;SDS011;21128;50.016;20.002;2023-04-19T05:14:45;18.93;;;13.77;;
34920;SDS011;21128;50.016;20.002;2023-04-19T05:17:12;18.07;;;14.07;;
34920;SDS011;21128;50.016;20.002;2023-04-19T05:19:39;20.10;;;13.48;;
34920;SDS011;21128;50.016;20.002;2023-04-19T05:22:06;20.00;;;13.43;;
34920;SDS011;21128;50.016;20.002;2023-04-19T05:24:33;17.60;;;14.33;;
34920;SDS011;21128;50.016;20.002;2023-04-19T05:27:00;19.02;;;14.18;;
34920;SDS011;21128;50.016;20.002;2023-04-19T05:29:27;17.47;;;13.33;;
34920;SDS011;21128;50.016;20.002;2023-04-19T05:31:54;17.00;;;13.30;;
34920;SDS011;21128;50.016;20.002;2023-04-19T05:34:21;20.53;;;13.90;;
34920;SDS011;21128;50.016;20.002;2023-04-19T05:36:47;15.30;;;12.53;;
34920;SDS011;21128;50.016;20.002;2023-04-19T05:39:14;19.15;;;13.80;;
34920;SDS011;21128;50.016;20.002;2023-04-19T05:41:42;15.70;;;12.97;;
34920;SDS011;21128;50.016;20.002;2023-04-19T05:44:09;17.27;;;12.70;;
34920;SDS011;21128;50.016;20.002;2023-04-19T05:46:36;18.37;;;13.87;;
34920;SDS011;21128;50.016;20.002;2023-04-19T05:49:03;15.50;;;12.50;;
34920;SDS011;21128;50.016;20.002;2023-04-19T05:51:30;19.70;;;14.13;;
34920;SDS011;21128;50.016;20.002;2023-04-19T05:53:58;22.80;;;14.77;;
34920;SDS011;21128;50.016;20.002;2023-04-19T05:56:26;18.30;;;13.30;;
34920;SDS011;21128;50.016;20.002;2023-04-19T05:58:53;18.60;;;13.45;;
34920;SDS011;21128;50.016;20.002;2023-04-19T06:01:22;17.40;;;13.20;;
34920;SDS011;21128;50.016;20.002;2023-04-19T06:03:49;19.67;;;12.77;;
34920;SDS011;21128;50.016;20.002;2023-04-19T06:06:19;15.77;;;12.90;;
34920;SDS011;21128;50.016;20.002;2023-04-19T06:08:47;17.37;;;12.93;;
34920;SDS011;21128;50.016;20.002;2023-04-19T06:11:15;16.37;;;12.13;;
34920;SDS011;21128;50.016;20.002;2023-04-19T06:13:42;14.03;;;12.20;;
34920;SDS011;21128;50.016;20.002;2023-04-19T06:16:10;14.97;;;12.27;;
34920;SDS011;21128;50.016;20.002;2023-04-19T06:18:37;14.83;;;11.63;;
34920;SDS011;21128;50.016;20.002;2023-04-19T06:21:04;16.57;;;11.73;;
34920;SDS011;21128;50.016;20.002;2023-04-19T06:23:31;14.93;;;12.23;;
34920;SDS011;21128;50.016;20.002;2023-04-19T06:25:58;16.03;;;12.50;;
34920;SDS011;21128;50.016;20.002;2023-04-19T06:28:25;21.27;;;15.53;;
34920;SDS011;21128;50.016;20.002;2023-04-19T06:30:52;15.77;;;12.17;;
34920;SDS011;21128;50.016;20.002;2023-04-19T06:33:19;13.95;;;11.12;;
34920;SDS011;21128;50.016;20.002;2023-04-19T06:35:46;12.67;;;10.23;;
34920;SDS011;21128;50.016;20.002;2023-04-19T06:38:13;12.47;;;10.80;;
34920;SDS011;21128;50.016;20.002;2023-04-19T06:40:40;14.07;;;10.23;;
34920;SDS011;21128;50.016;20.002;2023-04-19T06:43:07;14.80;;;10.13;;
34920;SDS011;21128;50.016;20.002;2023-04-19T06:45:34;12.57;;;10.20;;
34920;SDS011;21128;50.016;20.002;2023-04-19T06:48:01;12.43;;;10.10;;
34920;SDS011;21128;50.016;20.002;2023-04-19T06:50:28;12.33;;;10.03;;
34920;SDS011;21128;50.016;20.002;2023-04-19T06:52:56;11.90;;;10.30;;
34920;SDS011;21128;50.016;20.002;2023-04-19T06:55:23;14.10;;;10.50;;
34920;SDS011;21128;50.016;20.002;2023-04-19T06:57:50;15.10;;;10.85;;
34920;SDS011;21128;50.016;20.002;2023-04-19T07:00:17;20.07;;;11.77;;
34920;SDS011;21128;50.016;20.002;2023-04-19T07:02:44;20.80;;;11.00;;
34920;SDS011;21128;50.016;20.002;2023-04-19T07:05:11;29.40;;;13.85;;
34920;SDS011;21128;50.016;20.002;2023-04-19T07:07:38;25.30;;;13.67;;
34920;SDS011;21128;50.016;20.002;2023-04-19T07:10:07;18.35;;;13.38;;
34920;SDS011;21128;50.016;20.002;2023-04-19T07:12:35;16.20;;;12.15;;
34920;SDS011;21128;50.016;20.002;2023-04-19T07:15:02;24.30;;;15.17;;
34920;SDS011;21128;50.016;20.002;2023-04-19T07:17:30;18.57;;;14.27;;
34920;SDS011;21128;50.016;20.002;2023-04-19T07:19:57;21.07;;;13.27;;
34920;SDS011;21128;50.016;20.002;2023-04-19T07:22:24;21.00;;;14.80;;
34920;SDS011;21128;50.016;20.002;2023-04-19T07:24:51;19.93;;;14.10;;
34920;SDS011;21128;50.016;20.002;2023-04-19T07:27:19;19.47;;;14.50;;
34920;SDS011;21128;50.016;20.002;2023-04-19T07:29:46;17.30;;;13.53;;
34920;SDS011;21128;50.016;20.002;2023-04-19T07:32:13;17.70;;;14.40;;
34920;SDS011;21128;50.016;20.002;2023-04-19T07:34:40;20.20;;;14.05;;
34920;SDS011;21128;50.016;20.002;2023-04-19T07:37:09;22.33;;;14.37;;
34920;SDS011;21128;50.016;20.002;2023-04-19T07:39:36;17.85;;;14.35;;
34920;SDS011;21128;50.016;20.002;2023-04-19T07:42:03;23.37;;;13.90;;
34920;SDS011;21128;50.016;20.002;2023-04-19T07:44:30;20.82;;;13.78;;
34920;SDS011;21128;50.016;20.002;2023-04-19T07:46:57;17.03;;;14.17;;
34920;SDS011;21128;50.016;20.002;2023-04-19T07:49:24;16.33;;;12.93;;
34920;SDS011;21128;50.016;20.002;2023-04-19T07:51:51;15.93;;;10.60;;
34920;SDS011;21128;50.016;20.002;2023-04-19T07:54:18;15.50;;;10.30;;
34920;SDS011;21128;50.016;20.002;2023-04-19T07:56:48;13.57;;;8.67;;
34920;SDS011;21128;50.016;20.002;2023-04-19T07:59:16;11.77;;;7.77;;
34920;SDS011;21128;50.016;20.002;2023-04-19T08:01:43;11.37;;;8.03;;
34920;SDS011;21128;50.016;20.002;2023-04-19T08:04:10;14.35;;;7.35;;
34920;SDS011;21128;50.016;20.002;2023-04-19T08:06:37;9.53;;;6.57;;
34920;SDS011;21128;50.016;20.002;2023-04-19T08:09:07;11.50;;;6.37;;
34920;SDS011;21128;50.016;20.002;2023-04-19T08:11:34;8.55;;;5.92;;
34920;SDS011;21128;50.016;20.002;2023-04-19T08:14:01;6.97;;;5.10;;
34920;SDS011;21128;50.016;20.002;2023-04-19T08:16:28;12.13;;;6.17;;
34920;SDS011;21128;50.016;20.002;2023-04-19T08:18:55;15.97;;;5.67;;
34920;SDS011;21128;50.016;20.002;2023-04-19T08:21:22;13.22;;;5.90;;
34920;SDS011;21128;50.016;20.002;2023-04-19T08:23:49;12.80;;;6.23;;
34920;SDS011;21128;50.016;20.002;2023-04-19T08:26:16;24.00;;;6.67;;
34920;SDS011;21128;50.016;20.002;2023-04-19T08:28:43;16.05;;;6.70;;
34920;SDS011;21128;50.016;20.002;2023-04-19T08:31:10;12.80;;;5.97;;
34920;SDS011;21128;50.016;20.002;2023-04-19T08:33:38;8.63;;;5.17;;
34920;SDS011;21128;50.016;20.002;2023-04-19T08:36:05;9.47;;;5.40;;
34920;SDS011;21128;50.016;20.002;2023-04-19T08:38:33;10.17;;;5.23;;
34920;SDS011;21128;50.016;20.002;2023-04-19T08:41:00;8.28;;;5.10;;
34920;SDS011;21128;50.016;20.002;2023-04-19T08:43:27;8.03;;;5.47;;
34920;SDS011;21128;50.016;20.002;2023-04-19T08:45:59;6.20;;;5.00;;
34920;SDS011;21128;50.016;20.002;2023-04-19T08:48:27;8.43;;;4.73;;
34920;SDS011;21128;50.016;20.002;2023-04-19T08:50:55;7.37;;;4.47;;
34920;SDS011;21128;50.016;20.002;2023-04-19T08:53:26;9.57;;;4.87;;
34920;SDS011;21128;50.016;20.002;2023-04-19T08:55:55;7.67;;;5.30;;
34920;SDS011;21128;50.016;20.002;2023-04-19T08:58:24;8.07;;;5.43;;
34920;SDS011;21128;50.016;20.002;2023-04-19T09:00:52;6.80;;;5.00;;
34920;SDS011;21128;50.016;20.002;2023-04-19T09:03:19;8.90;;;5.22;;
34920;SDS011;21128;50.016;20.002;2023-04-19T09:05:46;7.90;;;5.55;;
34920;SDS011;21128;50.016;20.002;2023-04-19T09:08:19;8.27;;;5.40;;
34920;SDS011;21128;50.016;20.002;2023-04-19T09:10:54;12.60;;;5.50;;
34920;SDS011;21128;50.016;20.002;2023-04-19T09:13:25;9.20;;;5.20;;
34920;SDS011;21128;50.016;20.002;2023-04-19T09:15:53;9.30;;;5.13;;
34920;SDS011;21128;50.016;20.002;2023-04-19T09:18:30;10.07;;;5.47;;
34920;SDS011;21128;50.016;20.002;2023-04-19T09:20:57;11.23;;;5.73;;
34920;SDS011;21128;50.016;20.002;2023-04-19T09:23:25;10.55;;;5.70;;
34920;SDS011;21128;50.016;20.002;2023-04-19T09:25:55;7.63;;;5.70;;
34920;SDS011;21128;50.016;20.002;2023-04-19T09:28:27;12.85;;;5.87;;
34920;SDS011;21128;50.016;20.002;2023-04-19T09:30:54;11.50;;;6.70;;
34920;SDS011;21128;50.016;20.002;2023-04-19T09:33:40;11.93;;;5.80;;
34920;SDS011;21128;50.016;20.002;2023-04-19T09:36:07;8.87;;;5.83;;
34920;SDS011;21128;50.016;20.002;2023-04-19T09:38:47;6.97;;;5.83;;
34920;SDS011;21128;50.016;20.002;2023-04-19T09:41:15;9.00;;;5.50;;
34920;SDS011;21128;50.016;20.002;2023-04-19T09:43:45;11.97;;;6.00;;
34920;SDS011;21128;50.016;20.002;2023-04-19T09:51:39;9.20;;;5.67;;
34920;SDS011;21128;50.016;20.002;2023-04-19T09:54:08;12.03;;;5.70;;
34920;SDS011;21128;50.016;20.002;2023-04-19T09:56:36;10.10;;;6.00;;
34920;SDS011;21128;50.016;20.002;2023-04-19T09:59:05;11.80;;;5.87;;
34920;SDS011;21128;50.016;20.002;2023-04-19T10:01:43;11.27;;;5.77;;
34920;SDS011;21128;50.016;20.002;2023-04-19T10:04:17;12.00;;;5.63;;
34920;SDS011;21128;50.016;20.002;2023-04-19T10:06:49;11.70;;;5.75;;
34920;SDS011;21128;50.016;20.002;2023-04-19T10:09:21;7.40;;;5.17;;
34920;SDS011;21128;50.016;20.002;2023-04-19T10:11:49;10.27;;;5.60;;
34920;SDS011;21128;50.016;20.002;2023-04-19T10:14:21;12.10;;;4.80;;
34920;SDS011;21128;50.016;20.002;2023-04-19T10:19:19;9.00;;;5.17;;
34920;SDS011;21128;50.016;20.002;2023-04-19T10:21:47;10.47;;;4.80;;
34920;SDS011;21128;50.016;20.002;2023-04-19T10:24:16;6.37;;;4.47;;
34920;SDS011;21128;50.016;20.002;2023-04-19T10:32:17;10.43;;;5.80;;
34920;SDS011;21128;50.016;20.002;2023-04-19T10:34:44;10.70;;;6.30;;
34920;SDS011;21128;50.016;20.002;2023-04-19T10:37:15;8.20;;;5.80;;
34920;SDS011;21128;50.016;20.002;2023-04-19T10:39:43;9.40;;;5.37;;
34920;SDS011;21128;50.016;20.002;2023-04-19T10:42:10;8.97;;;6.23;;
34920;SDS011;21128;50.016;20.002;2023-04-19T10:44:38;10.57;;;5.23;;
34920;SDS011;21128;50.016;20.002;2023-04-19T10:47:05;7.80;;;5.33;;
34920;SDS011;21128;50.016;20.002;2023-04-19T10:49:42;8.23;;;5.30;;
34920;SDS011;21128;50.016;20.002;2023-04-19T10:52:28;8.27;;;5.40;;
34920;SDS011;21128;50.016;20.002;2023-04-19T10:54:57;7.40;;;5.87;;
34920;SDS011;21128;50.016;20.002;2023-04-19T10:57:59;10.10;;;5.60;;
34920;SDS011;21128;50.016;20.002;2023-04-19T11:00:31;10.75;;;6.65;;
34920;SDS011;21128;50.016;20.002;2023-04-19T11:06:16;9.55;;;5.95;;
34920;SDS011;21128;50.016;20.002;2023-04-19T11:08:45;9.27;;;6.30;;
34920;SDS011;21128;50.016;20.002;2023-04-19T11:11:13;9.25;;;5.70;;
34920;SDS011;21128;50.016;20.002;2023-04-19T11:13:41;9.73;;;6.30;;
34920;SDS011;21128;50.016;20.002;2023-04-19T11:16:09;9.87;;;6.03;;
34920;SDS011;21128;50.016;20.002;2023-04-19T11:18:36;9.97;;;6.00;;
34920;SDS011;21128;50.016;20.002;2023-04-19T11:21:04;9.38;;;6.35;;
34920;SDS011;21128;50.016;20.002;2023-04-19T11:23:31;11.03;;;6.22;;
34920;SDS011;21128;50.016;20.002;2023-04-19T11:25:58;9.53;;;6.80;;
34920;SDS011;21128;50.016;20.002;2023-04-19T11:28:24;16.93;;;7.57;;
34920;SDS011;21128;50.016;20.002;2023-04-19T11:30:52;12.50;;;7.00;;
34920;SDS011;21128;50.016;20.002;2023-04-19T11:33:20;10.63;;;7.27;;
34920;SDS011;21128;50.016;20.002;2023-04-19T11:35:51;11.20;;;7.37;;
34920;SDS011;21128;50.016;20.002;2023-04-19T11:38:18;14.60;;;8.13;;
34920;SDS011;21128;50.016;20.002;2023-04-19T11:40:45;10.70;;;7.95;;
34920;SDS011;21128;50.016;20.002;2023-04-19T11:43:12;15.43;;;8.38;;
34920;SDS011;21128;50.016;20.002;2023-04-19T11:45:39;11.97;;;8.73;;
34920;SDS011;21128;50.016;20.002;2023-04-19T11:48:12;14.27;;;8.33;;
34920;SDS011;21128;50.016;20.002;2023-04-19T11:50:43;12.57;;;8.27;;
34920;SDS011;21128;50.016;20.002;2023-04-19T11:53:18;13.77;;;8.30;;
34920;SDS011;21128;50.016;20.002;2023-04-19T11:55:48;12.25;;;8.65;;
34920;SDS011;21128;50.016;20.002;2023-04-19T12:01:08;15.95;;;8.55;;
34920;SDS011;21128;50.016;20.002;2023-04-19T12:03:40;15.57;;;10.73;;
34920;SDS011;21128;50.016;20.002;2023-04-19T12:06:11;15.60;;;8.97;;
34920;SDS011;21128;50.016;20.002;2023-04-19T12:08:44;21.10;;;9.37;;
34920;SDS011;21128;50.016;20.002;2023-04-19T12:11:13;22.43;;;9.40;;
34920;SDS011;21128;50.016;20.002;2023-04-19T12:13:41;16.97;;;9.47;;
34920;SDS011;21128;50.016;20.002;2023-04-19T12:16:10;16.00;;;10.37;;
34920;SDS011;21128;50.016;20.002;2023-04-19T12:18:41;21.27;;;10.57;;
34920;SDS011;21128;50.016;20.002;2023-04-19T12:21:26;20.73;;;9.53;;
34920;SDS011;21128;50.016;20.002;2023-04-19T12:23:59;17.07;;;11.40;;
34920;SDS011;21128;50.016;20.002;2023-04-19T12:26:27;17.10;;;11.73;;
34920;SDS011;21128;50.016;20.002;2023-04-19T12:28:55;17.45;;;11.25;;
34920;SDS011;21128;50.016;20.002;2023-04-19T12:31:23;16.30;;;9.45;;
34920;SDS011;21128;50.016;20.002;2023-04-19T12:33:50;14.97;;;9.47;;
34920;SDS011;21128;50.016;20.002;2023-04-19T12:36:17;13.13;;;9.97;;
34920;SDS011;21128;50.016;20.002;2023-04-19T12:38:45;18.30;;;10.10;;
34920;SDS011;21128;50.016;20.002;2023-04-19T12:41:12;21.13;;;10.80;;
34920;SDS011;21128;50.016;20.002;2023-04-19T12:43:39;17.90;;;10.53;;
34920;SDS011;21128;50.016;20.002;2023-04-19T12:46:06;18.93;;;11.13;;
34920;SDS011;21128;50.016;20.002;2023-04-19T12:48:33;15.63;;;11.20;;
34920;SDS011;21128;50.016;20.002;2023-04-19T12:51:00;22.23;;;10.57;;
34920;SDS011;21128;50.016;20.002;2023-04-19T12:53:27;15.45;;;10.68;;
34920;SDS011;21128;50.016;20.002;2023-04-19T12:55:54;17.37;;;10.70;;
34920;SDS011;21128;50.016;20.002;2023-04-19T12:58:21;13.73;;;9.57;;
34920;SDS011;21128;50.016;20.002;2023-04-19T13:00:48;15.07;;;10.03;;
34920;SDS011;21128;50.016;20.002;2023-04-19T13:03:15;15.93;;;9.63;;
34920;SDS011;21128;50.016;20.002;2023-04-19T13:05:42;22.10;;;9.60;;
34920;SDS011;21128;50.016;20.002;2023-04-19T13:08:09;17.55;;;8.93;;
34920;SDS011;21128;50.016;20.002;2023-04-19T13:10:36;14.17;;;9.97;;
34920;SDS011;21128;50.016;20.002;2023-04-19T13:13:03;18.17;;;10.98;;
34920;SDS011;21128;50.016;20.002;2023-04-19T13:15:30;15.30;;;9.25;;
34920;SDS011;21128;50.016;20.002;2023-04-19T13:17:57;17.25;;;10.40;;
34920;SDS011;21128;50.016;20.002;2023-04-19T13:20:24;18.40;;;10.83;;
34920;SDS011;21128;50.016;20.002;2023-04-19T13:22:51;14.60;;;10.37;;
34920;SDS011;21128;50.016;20.002;2023-04-19T13:25:18;18.67;;;10.80;;
34920;SDS011;21128;50.016;20.002;2023-04-19T13:27:45;18.35;;;10.80;;
34920;SDS011;21128;50.016;20.002;2023-04-19T13:30:12;16.77;;;10.67;;
34920;SDS011;21128;50.016;20.002;2023-04-19T13:32:40;18.13;;;10.97;;
34920;SDS011;21128;50.016;20.002;2023-04-19T13:35:07;17.90;;;12.17;;
34920;SDS011;21128;50.016;20.002;2023-04-19T13:37:34;17.70;;;11.50;;
34920;SDS011;21128;50.016;20.002;2023-04-19T13:40:01;18.65;;;11.73;;
34920;SDS011;21128;50.016;20.002;2023-04-19T13:42:30;20.10;;;11.60;;
34920;SDS011;21128;50.016;20.002;2023-04-19T13:44:57;18.80;;;11.85;;
34920;SDS011;21128;50.016;20.002;2023-04-19T13:47:23;17.33;;;12.03;;
34920;SDS011;21128;50.016;20.002;2023-04-19T13:49:51;16.83;;;12.00;;
34920;SDS011;21128;50.016;20.002;2023-04-19T13:52:18;22.40;;;11.90;;
34920;SDS011;21128;50.016;20.002;2023-04-19T13:54:45;21.07;;;12.50;;
34920;SDS011;21128;50.016;20.002;2023-04-19T13:57:12;18.37;;;12.03;;
34920;SDS011;21128;50.016;20.002;2023-04-19T13:59:39;17.47;;;11.73;;
34920;SDS011;21128;50.016;20.002;2023-04-19T14:02:06;16.45;;;12.68;;
34920;SDS011;21128;50.016;20.002;2023-04-19T14:04:33;19.73;;;12.90;;
34920;SDS011;21128;50.016;20.002;2023-04-19T14:07:00;19.37;;;11.75;;
34920;SDS011;21128;50.016;20.002;2023-04-19T14:09:27;21.10;;;12.70;;
34920;SDS011;21128;50.016;20.002;2023-04-19T14:11:54;17.47;;;11.97;;
34920;SDS011;21128;50.016;20.002;2023-04-19T14:14:21;18.30;;;11.63;;
34920;SDS011;21128;50.016;20.002;2023-04-19T14:16:48;18.32;;;12.18;;
34920;SDS011;21128;50.016;20.002;2023-04-19T14:19:15;13.90;;;10.80;;
34920;SDS011;21128;50.016;20.002;2023-04-19T14:21:42;19.90;;;10.90;;
34920;SDS011;21128;50.016;20.002;2023-04-19T14:24:09;17.30;;;11.07;;
34920;SDS011;21128;50.016;20.002;2023-04-19T14:26:36;17.60;;;11.70;;
34920;SDS011;21128;50.016;20.002;2023-04-19T14:29:03;15.40;;;10.87;;
34920;SDS011;21128;50.016;20.002;2023-04-19T14:31:30;17.87;;;10.80;;
34920;SDS011;21128;50.016;20.002;2023-04-19T14:33:57;18.10;;;11.00;;
34920;SDS011;21128;50.016;20.002;2023-04-19T14:36:25;19.55;;;10.38;;